sensor_id;sensor_type;location;lat;lon;timestamp;pressure;altitude;pressure_sealevel;temperature;humidity
50977;BME280;36992;48.200;12.418;2023-03-22T00:01:08;96587.63;;;14.91;47.19
50977;BME280;36992;48.200;12.418;2023-03-22T00:03:35;96596.72;;;14.87;47.37
50977;BME280;36992;48.200;12.418;2023-03-22T00:06:01;96595.13;;;14.86;47.57
50977;BME280;36992;48.200;12.418;2023-03-22T00:08:28;96598.16;;;14.84;47.67
50977;BME280;36992;48.200;12.418;2023-03-22T00:10:54;96593.88;;;14.83;47.67
50977;BME280;36992;48.200;12.418;2023-03-22T00:13:22;96593.88;;;14.83;47.57
50977;BME280;36992;48.200;12.418;2023-03-22T00:15:49;96599.59;;;14.81;47.71
50977;BME280;36992;48.200;12.418;2023-03-22T00:18:15;96591.78;;;14.80;47.77
50977;BME280;36992;48.200;12.418;2023-03-22T00:20:47;96594.97;;;14.82;47.49
50977;BME280;36992;48.200;12.418;2023-03-22T00:23:14;96587.81;;;14.77;47.56
50977;BME280;36992;48.200;12.418;2023-03-22T00:25:42;96588.63;;;14.78;47.47
50977;BME280;36992;48.200;12.418;2023-03-22T00:28:09;96580.00;;;14.76;47.65
50977;BME280;36992;48.200;12.418;2023-03-22T00:30:37;96585.41;;;14.76;47.38
50977;BME280;36992;48.200;12.418;2023-03-22T00:33:04;96580.63;;;14.73;47.67
50977;BME280;36992;48.200;12.418;2023-03-22T00:35:31;96581.25;;;14.69;47.66
50977;BME280;36992;48.200;12.418;2023-03-22T00:37:57;96574.22;;;14.68;47.53
50977;BME280;36992;48.200;12.418;2023-03-22T00:40:30;96563.72;;;14.67;47.64
50977;BME280;36992;48.200;12.418;2023-03-22T00:42:57;96566.75;;;14.65;47.87
50977;BME280;36992;48.200;12.418;2023-03-22T00:45:24;96565.50;;;14.63;47.73
50977;BME280;36992;48.200;12.418;2023-03-22T00:47:52;96560.84;;;14.63;47.62
50977;BME280;36992;48.200;12.418;2023-03-22T00:50:19;96546.69;;;14.57;47.97
50977;BME280;36992;48.200;12.418;2023-03-22T00:52:45;96547.00;;;14.56;47.83
50977;BME280;36992;48.200;12.418;2023-03-22T00:55:12;96551.13;;;14.53;47.80
50977;BME280;36992;48.200;12.418;2023-03-22T00:57:39;96548.78;;;14.52;47.83
50977;BME280;36992;48.200;12.418;2023-03-22T01:00:06;96536.66;;;14.49;47.72
50977;BME280;36992;48.200;12.418;2023-03-22T01:02:37;96533.44;;;14.47;48.13
50977;BME280;36992;48.200;12.418;2023-03-22T01:05:06;96536.97;;;14.48;47.78
50977;BME280;36992;48.200;12.418;2023-03-22T01:07:33;96535.22;;;14.43;48.15
50977;BME280;36992;48.200;12.418;2023-03-22T01:10:03;96536.66;;;14.40;47.95
50977;BME280;36992;48.200;12.418;2023-03-22T01:12:30;96531.41;;;14.35;48.29
50977;BME280;36992;48.200;12.418;2023-03-22T01:14:57;96530.94;;;14.33;48.24
50977;BME280;36992;48.200;12.418;2023-03-22T01:17:23;96535.41;;;14.29;48.59
50977;BME280;36992;48.200;12.418;2023-03-22T01:19:50;96527.91;;;14.26;48.52
50977;BME280;36992;48.200;12.418;2023-03-22T01:22:18;96530.16;;;14.24;48.23
50977;BME280;36992;48.200;12.418;2023-03-22T01:24:45;96534.28;;;14.21;48.58
50977;BME280;36992;48.200;12.418;2023-03-22T01:27:11;96531.44;;;14.18;48.60
50977;BME280;36992;48.200;12.418;2023-03-22T01:29:38;96534.78;;;14.14;48.71
50977;BME280;36992;48.200;12.418;2023-03-22T01:32:05;96524.28;;;14.13;48.53
50977;BME280;36992;48.200;12.418;2023-03-22T01:34:31;96520.28;;;14.10;49.00
50977;BME280;36992;48.200;12.418;2023-03-22T01:36:58;96521.41;;;14.09;49.00
50977;BME280;36992;48.200;12.418;2023-03-22T01:39:26;96517.56;;;14.10;48.79
50977;BME280;36992;48.200;12.418;2023-03-22T01:41:52;96512.78;;;14.07;49.14
50977;BME280;36992;48.200;12.418;2023-03-22T01:44:21;96514.41;;;14.08;48.83
50977;BME280;36992;48.200;12.418;2023-03-22T01:46:49;96517.41;;;14.07;48.88
50977;BME280;36992;48.200;12.418;2023-03-22T01:49:19;96519.00;;;14.08;48.69
50977;BME280;36992;48.200;12.418;2023-03-22T01:51:48;96520.44;;;14.05;49.02
50977;BME280;36992;48.200;12.418;2023-03-22T01:54:20;96518.19;;;14.07;48.72
50977;BME280;36992;48.200;12.418;2023-03-22T01:56:51;96511.19;;;14.06;48.75
50977;BME280;36992;48.200;12.418;2023-03-22T01:59:18;96514.25;;;14.05;48.91
50977;BME280;36992;48.200;12.418;2023-03-22T02:01:45;96508.84;;;14.05;49.16
50977;BME280;36992;48.200;12.418;2023-03-22T02:04:14;96509.75;;;14.09;48.95
50977;BME280;36992;48.200;12.418;2023-03-22T02:06:44;96511.19;;;14.06;49.06
50977;BME280;36992;48.200;12.418;2023-03-22T02:09:13;96508.19;;;14.08;48.96
50977;BME280;36992;48.200;12.418;2023-03-22T02:11:48;96505.63;;;14.11;48.55
50977;BME280;36992;48.200;12.418;2023-03-22T02:17:24;96509.44;;;14.10;48.48
50977;BME280;36992;48.200;12.418;2023-03-22T02:20:22;96504.50;;;14.12;48.18
50977;BME280;36992;48.200;12.418;2023-03-22T02:23:13;96507.88;;;14.09;48.13
50977;BME280;36992;48.200;12.418;2023-03-22T02:26:15;96502.13;;;14.11;47.98
50977;BME280;36992;48.200;12.418;2023-03-22T02:28:49;96499.59;;;14.06;48.74
50977;BME280;36992;48.200;12.418;2023-03-22T02:31:33;96509.59;;;14.05;48.33
50977;BME280;36992;48.200;12.418;2023-03-22T02:34:39;96497.66;;;14.06;47.94
50977;BME280;36992;48.200;12.418;2023-03-22T02:37:35;96497.50;;;14.02;48.22
50977;BME280;36992;48.200;12.418;2023-03-22T02:40:13;96500.38;;;13.97;48.59
50977;BME280;36992;48.200;12.418;2023-03-22T02:42:51;96513.13;;;13.97;48.74
50977;BME280;36992;48.200;12.418;2023-03-22T02:45:24;96503.72;;;13.94;48.69
50977;BME280;36992;48.200;12.418;2023-03-22T02:48:04;96504.50;;;13.95;48.62
50977;BME280;36992;48.200;12.418;2023-03-22T02:50:37;96501.31;;;13.93;48.82
50977;BME280;36992;48.200;12.418;2023-03-22T02:53:09;96505.16;;;13.92;49.01
50977;BME280;36992;48.200;12.418;2023-03-22T02:55:43;96496.22;;;13.91;48.98
50977;BME280;36992;48.200;12.418;2023-03-22T02:58:16;96497.34;;;13.90;49.12
50977;BME280;36992;48.200;12.418;2023-03-22T03:00:45;96493.38;;;13.87;49.18
50977;BME280;36992;48.200;12.418;2023-03-22T03:03:17;96489.53;;;13.88;49.16
50977;BME280;36992;48.200;12.418;2023-03-22T03:05:48;96487.94;;;13.87;49.18
50977;BME280;36992;48.200;12.418;2023-03-22T03:08:18;96487.78;;;13.84;49.10
50977;BME280;36992;48.200;12.418;2023-03-22T03:10:47;96492.44;;;13.83;48.99
50977;BME280;36992;48.200;12.418;2023-03-22T03:13:16;96486.84;;;13.80;49.12
50977;BME280;36992;48.200;12.418;2023-03-22T03:15:45;96487.16;;;13.78;49.11
50977;BME280;36992;48.200;12.418;2023-03-22T03:18:25;96486.84;;;13.80;48.76
50977;BME280;36992;48.200;12.418;2023-03-22T03:21:02;96491.47;;;13.79;48.96
50977;BME280;36992;48.200;12.418;2023-03-22T03:23:39;96490.66;;;13.79;49.04
50977;BME280;36992;48.200;12.418;2023-03-22T03:26:17;96487.94;;;13.79;48.93
50977;BME280;36992;48.200;12.418;2023-03-22T03:28:49;96495.28;;;13.78;49.22
50977;BME280;36992;48.200;12.418;2023-03-22T03:31:26;96494.78;;;13.76;48.99
50977;BME280;36992;48.200;12.418;2023-03-22T03:34:01;96505.16;;;13.74;49.21
50977;BME280;36992;48.200;12.418;2023-03-22T03:36:29;96509.44;;;13.66;49.65
50977;BME280;36992;48.200;12.418;2023-03-22T03:39:01;96515.66;;;13.67;49.58
50977;BME280;36992;48.200;12.418;2023-03-22T03:41:30;96510.56;;;13.65;49.05
50977;BME280;36992;48.200;12.418;2023-03-22T03:43:58;96506.91;;;13.61;49.54
50977;BME280;36992;48.200;12.418;2023-03-22T03:46:25;96511.50;;;13.60;49.71
50977;BME280;36992;48.200;12.418;2023-03-22T03:48:54;96516.13;;;13.60;49.46
50977;BME280;36992;48.200;12.418;2023-03-22T03:51:22;96516.75;;;13.57;49.48
50977;BME280;36992;48.200;12.418;2023-03-22T03:53:49;96520.25;;;13.57;49.59
50977;BME280;36992;48.200;12.418;2023-03-22T03:56:15;96516.75;;;13.57;49.43
50977;BME280;36992;48.200;12.418;2023-03-22T03:58:43;96517.53;;;13.57;49.31
50977;BME280;36992;48.200;12.418;2023-03-22T04:01:10;96510.53;;;13.56;49.38
50977;BME280;36992;48.200;12.418;2023-03-22T04:03:36;96522.94;;;13.57;49.33
50977;BME280;36992;48.200;12.418;2023-03-22T04:06:03;96512.94;;;13.58;49.43
50977;BME280;36992;48.200;12.418;2023-03-22T04:08:30;96515.94;;;13.56;49.23
50977;BME280;36992;48.200;12.418;2023-03-22T04:10:57;96515.94;;;13.56;49.48
50977;BME280;36992;48.200;12.418;2023-03-22T04:13:24;96515.94;;;13.56;49.30
50977;BME280;36992;48.200;12.418;2023-03-22T04:15:54;96513.75;;;13.58;49.01
50977;BME280;36992;48.200;12.418;2023-03-22T04:18:26;96507.38;;;13.54;49.33
50977;BME280;36992;48.200;12.418;2023-03-22T04:20:53;96501.94;;;13.54;49.38
50977;BME280;36992;48.200;12.418;2023-03-22T04:23:20;96498.78;;;13.52;49.33
50977;BME280;36992;48.200;12.418;2023-03-22T04:25:47;96498.78;;;13.52;49.38
50977;BME280;36992;48.200;12.418;2023-03-22T04:28:15;96494.78;;;13.49;49.32
50977;BME280;36992;48.200;12.418;2023-03-22T04:30:44;96487.78;;;13.48;49.38
50977;BME280;36992;48.200;12.418;2023-03-22T04:33:12;96483.16;;;13.49;49.17
50977;BME280;36992;48.200;12.418;2023-03-22T04:35:39;96487.56;;;13.45;49.32
50977;BME280;36992;48.200;12.418;2023-03-22T04:38:05;96488.22;;;13.42;48.99
50977;BME280;36992;48.200;12.418;2023-03-22T04:40:33;96482.34;;;13.40;49.39
50977;BME280;36992;48.200;12.418;2023-03-22T04:43:02;96484.88;;;13.36;48.99
50977;BME280;36992;48.200;12.418;2023-03-22T04:45:29;96487.88;;;13.34;48.86
50977;BME280;36992;48.200;12.418;2023-03-22T04:47:59;96486.91;;;13.30;49.04
50977;BME280;36992;48.200;12.418;2023-03-22T04:50:27;96488.03;;;13.29;49.04
50977;BME280;36992;48.200;12.418;2023-03-22T04:52:53;96486.59;;;13.23;49.28
50977;BME280;36992;48.200;12.418;2023-03-22T04:55:20;96490.25;;;13.18;49.48
50977;BME280;36992;48.200;12.418;2023-03-22T04:57:46;96484.66;;;13.15;49.38
50977;BME280;36992;48.200;12.418;2023-03-22T05:00:13;96485.28;;;13.12;49.63
50977;BME280;36992;48.200;12.418;2023-03-22T05:02:41;96482.09;;;13.09;49.48
50977;BME280;36992;48.200;12.418;2023-03-22T05:05:08;96482.72;;;13.06;49.31
50977;BME280;36992;48.200;12.418;2023-03-22T05:07:36;96478.13;;;13.07;49.72
50977;BME280;36992;48.200;12.418;2023-03-22T05:10:04;96483.34;;;13.03;49.69
50977;BME280;36992;48.200;12.418;2023-03-22T05:12:31;96489.88;;;13.02;49.89
50977;BME280;36992;48.200;12.418;2023-03-22T05:14:57;96490.50;;;12.99;49.83
50977;BME280;36992;48.200;12.418;2023-03-22T05:17:25;96484.63;;;12.97;49.60
50977;BME280;36992;48.200;12.418;2023-03-22T05:19:51;96484.44;;;12.93;49.87
50977;BME280;36992;48.200;12.418;2023-03-22T05:22:18;96491.28;;;12.91;49.85
50977;BME280;36992;48.200;12.418;2023-03-22T05:24:47;96485.88;;;12.91;49.79
50977;BME280;36992;48.200;12.418;2023-03-22T05:27:14;96489.19;;;12.88;49.77
50977;BME280;36992;48.200;12.418;2023-03-22T05:29:41;96487.91;;;12.85;49.95
50977;BME280;36992;48.200;12.418;2023-03-22T05:32:09;96498.22;;;12.83;49.88
50977;BME280;36992;48.200;12.418;2023-03-22T05:34:36;96506.16;;;12.79;49.95
50977;BME280;36992;48.200;12.418;2023-03-22T05:37:03;96497.88;;;12.76;50.03
50977;BME280;36992;48.200;12.418;2023-03-22T05:39:29;96498.50;;;12.73;49.97
50977;BME280;36992;48.200;12.418;2023-03-22T05:41:57;96495.00;;;12.72;50.00
50977;BME280;36992;48.200;12.418;2023-03-22T05:44:24;96499.44;;;12.68;50.26
50977;BME280;36992;48.200;12.418;2023-03-22T05:46:50;96502.78;;;12.65;50.16
50977;BME280;36992;48.200;12.418;2023-03-22T05:49:17;96510.06;;;12.64;50.32
50977;BME280;36992;48.200;12.418;2023-03-22T05:51:43;96511.50;;;12.62;50.28
50977;BME280;36992;48.200;12.418;2023-03-22T05:54:09;96515.31;;;12.61;50.38
50977;BME280;36992;48.200;12.418;2023-03-22T05:56:36;96517.19;;;12.60;50.33
50977;BME280;36992;48.200;12.418;2023-03-22T05:59:06;96525.50;;;12.64;50.14
50977;BME280;36992;48.200;12.418;2023-03-22T06:01:32;96518.47;;;12.63;50.15
50977;BME280;36992;48.200;12.418;2023-03-22T06:03:59;96522.28;;;12.62;49.94
50977;BME280;36992;48.200;12.418;2023-03-22T06:06:25;96522.81;;;12.64;50.25
50977;BME280;36992;48.200;12.418;2023-03-22T06:08:53;96523.59;;;12.64;50.09
50977;BME280;36992;48.200;12.418;2023-03-22T06:11:20;96519.78;;;12.65;50.13
50977;BME280;36992;48.200;12.418;2023-03-22T06:13:47;96516.28;;;12.65;50.32
50977;BME280;36992;48.200;12.418;2023-03-22T06:16:14;96521.06;;;12.68;50.08
50977;BME280;36992;48.200;12.418;2023-03-22T06:18:41;96516.75;;;12.67;50.15
50977;BME280;36992;48.200;12.418;2023-03-22T06:21:07;96514.53;;;12.69;50.26
50977;BME280;36992;48.200;12.418;2023-03-22T06:23:34;96522.03;;;12.72;50.02
50977;BME280;36992;48.200;12.418;2023-03-22T06:26:00;96519.81;;;12.74;50.10
50977;BME280;36992;48.200;12.418;2023-03-22T06:28:27;96524.09;;;12.75;49.98
50977;BME280;36992;48.200;12.418;2023-03-22T06:30:54;96522.22;;;12.76;50.04
50977;BME280;36992;48.200;12.418;2023-03-22T06:33:22;96516.16;;;12.79;50.00
50977;BME280;36992;48.200;12.418;2023-03-22T06:35:49;96526.19;;;12.78;49.95
50977;BME280;36992;48.200;12.418;2023-03-22T06:38:15;96527.78;;;12.79;50.05
50977;BME280;36992;48.200;12.418;2023-03-22T06:40:42;96523.97;;;12.80;49.89
50977;BME280;36992;48.200;12.418;2023-03-22T06:43:08;96520.16;;;12.81;49.98
50977;BME280;36992;48.200;12.418;2023-03-22T06:45:35;96524.47;;;12.82;49.90
50977;BME280;36992;48.200;12.418;2023-03-22T06:48:01;96526.38;;;12.82;49.93
50977;BME280;36992;48.200;12.418;2023-03-22T06:50:29;96524.97;;;12.85;50.21
50977;BME280;36992;48.200;12.418;2023-03-22T06:52:56;96530.38;;;12.85;50.35
50977;BME280;36992;48.200;12.418;2023-03-22T06:55:23;96538.00;;;12.82;50.65
50977;BME280;36992;48.200;12.418;2023-03-22T06:57:49;96528.78;;;12.84;50.44
50977;BME280;36992;48.200;12.418;2023-03-22T07:00:16;96535.47;;;12.86;50.32
50977;BME280;36992;48.200;12.418;2023-03-22T07:02:43;96523.25;;;12.89;50.32
50977;BME280;36992;48.200;12.418;2023-03-22T07:05:10;96531.00;;;12.90;50.30
50977;BME280;36992;48.200;12.418;2023-03-22T07:07:37;96528.47;;;12.94;50.43
50977;BME280;36992;48.200;12.418;2023-03-22T07:10:05;96530.09;;;12.95;50.45
50977;BME280;36992;48.200;12.418;2023-03-22T07:12:33;96518.66;;;12.98;50.37
50977;BME280;36992;48.200;12.418;2023-03-22T07:14:59;96517.53;;;12.99;50.68
50977;BME280;36992;48.200;12.418;2023-03-22T07:17:26;96517.69;;;13.03;50.61
50977;BME280;36992;48.200;12.418;2023-03-22T07:19:52;96525.97;;;13.06;50.92
50977;BME280;36992;48.200;12.418;2023-03-22T07:22:19;96518.38;;;13.08;50.65
50977;BME280;36992;48.200;12.418;2023-03-22T07:24:48;96525.53;;;13.13;50.93
50977;BME280;36992;48.200;12.418;2023-03-22T07:27:14;96523.31;;;13.15;50.50
50977;BME280;36992;48.200;12.418;2023-03-22T07:29:41;96521.88;;;13.18;50.54
50977;BME280;36992;48.200;12.418;2023-03-22T07:32:07;96526.34;;;13.22;50.46
50977;BME280;36992;48.200;12.418;2023-03-22T07:34:34;96529.25;;;13.26;50.25
50977;BME280;36992;48.200;12.418;2023-03-22T07:37:01;96529.09;;;13.31;50.63
50977;BME280;36992;48.200;12.418;2023-03-22T07:39:28;96527.34;;;13.35;50.41
50977;BME280;36992;48.200;12.418;2023-03-22T07:41:56;96527.22;;;13.41;50.48
50977;BME280;36992;48.200;12.418;2023-03-22T07:44:23;96531.19;;;13.43;49.86
50977;BME280;36992;48.200;12.418;2023-03-22T07:46:50;96525.66;;;13.48;50.30
50977;BME280;36992;48.200;12.418;2023-03-22T07:49:17;96524.72;;;13.53;50.22
50977;BME280;36992;48.200;12.418;2023-03-22T07:51:44;96521.88;;;13.58;50.48
50977;BME280;36992;48.200;12.418;2023-03-22T07:54:10;96521.69;;;13.63;50.29
50977;BME280;36992;48.200;12.418;2023-03-22T07:56:37;96523.47;;;13.68;49.81
50977;BME280;36992;48.200;12.418;2023-03-22T07:59:05;96528.91;;;13.77;49.95
50977;BME280;36992;48.200;12.418;2023-03-22T08:01:31;96530.63;;;13.82;49.89
50977;BME280;36992;48.200;12.418;2023-03-22T08:03:58;96521.56;;;13.86;49.23
50977;BME280;36992;48.200;12.418;2023-03-22T08:06:24;96525.69;;;13.93;48.97
50977;BME280;36992;48.200;12.418;2023-03-22T08:08:51;96524.44;;;13.99;49.23
50977;BME280;36992;48.200;12.418;2023-03-22T08:11:17;96515.03;;;14.05;49.47
50977;BME280;36992;48.200;12.418;2023-03-22T08:13:44;96519.16;;;14.11;48.43
50977;BME280;36992;48.200;12.418;2023-03-22T08:16:11;96516.44;;;14.20;47.91
50977;BME280;36992;48.200;12.418;2023-03-22T08:18:38;96518.19;;;14.25;47.62
50977;BME280;36992;48.200;12.418;2023-03-22T08:21:05;96520.75;;;14.30;47.32
50977;BME280;36992;48.200;12.418;2023-03-22T08:23:32;96522.16;;;14.36;47.69
50977;BME280;36992;48.200;12.418;2023-03-22T08:25:58;96522.47;;;14.43;47.31
50977;BME280;36992;48.200;12.418;2023-03-22T08:28:25;96521.19;;;14.50;46.69
50977;BME280;36992;48.200;12.418;2023-03-22T08:30:51;96521.00;;;14.55;46.59
50977;BME280;36992;48.200;12.418;2023-03-22T08:33:19;96520.19;;;14.63;45.90
50977;BME280;36992;48.200;12.418;2023-03-22T08:35:48;96523.84;;;14.67;46.01
50977;BME280;36992;48.200;12.418;2023-03-22T08:38:14;96509.00;;;14.74;45.52
50977;BME280;36992;48.200;12.418;2023-03-22T08:40:41;96512.34;;;14.79;45.60
50977;BME280;36992;48.200;12.418;2023-03-22T08:43:10;96519.19;;;14.86;45.46
50977;BME280;36992;48.200;12.418;2023-03-22T08:45:37;96513.94;;;14.89;45.21
50977;BME280;36992;48.200;12.418;2023-03-22T08:48:04;96512.63;;;14.95;45.35
50977;BME280;36992;48.200;12.418;2023-03-22T08:50:31;96512.91;;;15.03;45.25
50977;BME280;36992;48.200;12.418;2023-03-22T08:52:59;96510.03;;;15.08;44.72
50977;BME280;36992;48.200;12.418;2023-03-22T08:55:25;96500.91;;;15.13;44.36
50977;BME280;36992;48.200;12.418;2023-03-22T08:57:52;96503.44;;;15.18;44.80
50977;BME280;36992;48.200;12.418;2023-03-22T09:00:23;96500.19;;;15.24;44.57
50977;BME280;36992;48.200;12.418;2023-03-22T09:02:49;96496.16;;;15.31;44.42
50977;BME280;36992;48.200;12.418;2023-03-22T09:05:16;96493.25;;;15.36;44.09
50977;BME280;36992;48.200;12.418;2023-03-22T09:07:44;96495.13;;;15.44;44.63
50977;BME280;36992;48.200;12.418;2023-03-22T09:10:11;96493.34;;;15.48;44.25
50977;BME280;36992;48.200;12.418;2023-03-22T09:12:37;96490.75;;;15.52;43.24
50977;BME280;36992;48.200;12.418;2023-03-22T09:15:05;96492.63;;;15.60;43.67
50977;BME280;36992;48.200;12.418;2023-03-22T09:17:32;96490.50;;;15.66;43.00
50977;BME280;36992;48.200;12.418;2023-03-22T09:19:58;96489.19;;;15.72;43.09
50977;BME280;36992;48.200;12.418;2023-03-22T09:22:25;96492.84;;;15.76;42.59
50977;BME280;36992;48.200;12.418;2023-03-22T09:24:53;96488.44;;;15.84;42.85
50977;BME280;36992;48.200;12.418;2023-03-22T09:27:19;96486.66;;;15.88;42.57
50977;BME280;36992;48.200;12.418;2023-03-22T09:29:46;96490.00;;;15.94;42.74
50977;BME280;36992;48.200;12.418;2023-03-22T09:32:14;96487.88;;;16.00;42.51
50977;BME280;36992;48.200;12.418;2023-03-22T09:34:40;96485.75;;;16.05;42.45
50977;BME280;36992;48.200;12.418;2023-03-22T09:37:07;96484.41;;;16.12;42.94
50977;BME280;36992;48.200;12.418;2023-03-22T09:39:33;96484.22;;;16.17;42.30
50977;BME280;36992;48.200;12.418;2023-03-22T09:42:06;96477.88;;;16.25;42.19
50977;BME280;36992;48.200;12.418;2023-03-22T09:44:36;96485.06;;;16.30;42.31
50977;BME280;36992;48.200;12.418;2023-03-22T09:47:09;96473.63;;;16.37;42.05
50977;BME280;36992;48.200;12.418;2023-03-22T09:49:41;96472.72;;;16.45;41.80
50977;BME280;36992;48.200;12.418;2023-03-22T09:52:12;96471.38;;;16.51;41.10
50977;BME280;36992;48.200;12.418;2023-03-22T09:54:41;96467.66;;;16.56;40.63
50977;BME280;36992;48.200;12.418;2023-03-22T09:57:15;96462.13;;;16.65;40.93
50977;BME280;36992;48.200;12.418;2023-03-22T09:59:51;96466.22;;;16.71;40.55
50977;BME280;36992;48.200;12.418;2023-03-22T10:02:38;96460.31;;;16.81;41.38
50977;BME280;36992;48.200;12.418;2023-03-22T10:05:13;96463.97;;;16.85;40.34
50977;BME280;36992;48.200;12.418;2023-03-22T10:08:12;96459.19;;;16.95;40.58
50977;BME280;36992;48.200;12.418;2023-03-22T10:10:44;96450.69;;;16.96;39.00
50977;BME280;36992;48.200;12.418;2023-03-22T10:13:16;96449.47;;;17.06;40.01
50977;BME280;36992;48.200;12.418;2023-03-22T10:15:47;96439.50;;;17.10;39.37
50977;BME280;36992;48.200;12.418;2023-03-22T10:18:18;96442.09;;;17.19;39.33
50977;BME280;36992;48.200;12.418;2023-03-22T10:20:49;96444.22;;;17.26;39.02
50977;BME280;36992;48.200;12.418;2023-03-22T10:23:24;96441.75;;;17.33;39.21
50977;BME280;36992;48.200;12.418;2023-03-22T10:25:54;96434.94;;;17.39;39.25
50977;BME280;36992;48.200;12.418;2023-03-22T10:28:26;96439.44;;;17.48;38.91
50977;BME280;36992;48.200;12.418;2023-03-22T10:30:55;96432.19;;;17.52;38.27
50977;BME280;36992;48.200;12.418;2023-03-22T10:33:29;96441.00;;;17.61;39.22
50977;BME280;36992;48.200;12.418;2023-03-22T10:35:59;96434.16;;;17.67;38.30
50977;BME280;36992;48.200;12.418;2023-03-22T10:38:28;96429.38;;;17.77;38.55
50977;BME280;36992;48.200;12.418;2023-03-22T10:40:57;96432.28;;;17.84;38.44
50977;BME280;36992;48.200;12.418;2023-03-22T10:43:29;96430.19;;;17.93;38.47
50977;BME280;36992;48.200;12.418;2023-03-22T10:45:57;96427.94;;;17.96;37.19
50977;BME280;36992;48.200;12.418;2023-03-22T10:48:28;96429.28;;;18.02;37.29
50977;BME280;36992;48.200;12.418;2023-03-22T10:50:57;96414.72;;;18.10;37.39
50977;BME280;36992;48.200;12.418;2023-03-22T10:53:34;96416.94;;;18.20;38.53
50977;BME280;36992;48.200;12.418;2023-03-22T10:56:03;96419.75;;;18.24;37.62
50977;BME280;36992;48.200;12.418;2023-03-22T10:58:32;96414.91;;;18.33;37.73
50977;BME280;36992;48.200;12.418;2023-03-22T11:01:04;96418.28;;;18.43;38.38
50977;BME280;36992;48.200;12.418;2023-03-22T11:03:37;96410.28;;;18.50;38.13
50977;BME280;36992;48.200;12.418;2023-03-22T11:06:07;96408.41;;;18.54;37.70
50977;BME280;36992;48.200;12.418;2023-03-22T11:08:44;96414.16;;;18.65;37.91
50977;BME280;36992;48.200;12.418;2023-03-22T11:11:16;96412.75;;;18.71;37.83
50977;BME280;36992;48.200;12.418;2023-03-22T11:13:50;96416.78;;;18.78;38.15
50977;BME280;36992;48.200;12.418;2023-03-22T11:16:18;96407.09;;;18.80;36.21
50977;BME280;36992;48.200;12.418;2023-03-22T11:18:45;96409.47;;;18.82;35.96
50977;BME280;36992;48.200;12.418;2023-03-22T11:21:14;96401.44;;;18.89;36.20
50977;BME280;36992;48.200;12.418;2023-03-22T11:23:47;96398.44;;;18.94;37.27
50977;BME280;36992;48.200;12.418;2023-03-22T11:26:24;96404.06;;;19.01;37.25
50977;BME280;36992;48.200;12.418;2023-03-22T11:28:59;96395.63;;;19.07;37.17
50977;BME280;36992;48.200;12.418;2023-03-22T11:31:27;96400.28;;;19.22;38.93
50977;BME280;36992;48.200;12.418;2023-03-22T11:34:15;96389.63;;;19.17;36.52
50977;BME280;36992;48.200;12.418;2023-03-22T11:36:43;96381.44;;;19.17;36.76
50977;BME280;36992;48.200;12.418;2023-03-22T11:39:12;96385.03;;;19.21;36.25
50977;BME280;36992;48.200;12.418;2023-03-22T11:41:39;96375.78;;;19.26;35.71
50977;BME280;36992;48.200;12.418;2023-03-22T11:44:11;96379.47;;;19.34;36.80
50977;BME280;36992;48.200;12.418;2023-03-22T11:46:38;96368.16;;;19.35;35.11
50977;BME280;36992;48.200;12.418;2023-03-22T11:49:15;96376.13;;;19.44;36.01
50977;BME280;36992;48.200;12.418;2023-03-22T11:51:43;96375.44;;;19.47;35.55
50977;BME280;36992;48.200;12.418;2023-03-22T11:54:14;96369.31;;;19.54;35.19
50977;BME280;36992;48.200;12.418;2023-03-22T11:56:47;96362.78;;;19.59;35.68
50977;BME280;36992;48.200;12.418;2023-03-22T11:59:21;96364.84;;;19.65;35.91
50977;BME280;36992;48.200;12.418;2023-03-22T12:01:51;96357.47;;;19.66;34.70
50977;BME280;36992;48.200;12.418;2023-03-22T12:04:23;96360.31;;;19.73;35.47
50977;BME280;36992;48.200;12.418;2023-03-22T12:06:54;96351.38;;;19.76;35.44
50977;BME280;36992;48.200;12.418;2023-03-22T12:09:25;96354.22;;;19.80;35.18
50977;BME280;36992;48.200;12.418;2023-03-22T12:11:56;96342.91;;;19.81;33.95
50977;BME280;36992;48.200;12.418;2023-03-22T12:14:28;96344.19;;;19.88;35.08
50977;BME280;36992;48.200;12.418;2023-03-22T12:16:58;96342.31;;;19.92;34.76
50977;BME280;36992;48.200;12.418;2023-03-22T12:19:37;96342.13;;;20.01;35.68
50977;BME280;36992;48.200;12.418;2023-03-22T12:22:10;96336.72;;;20.04;34.57
50977;BME280;36992;48.200;12.418;2023-03-22T12:24:36;96336.78;;;20.08;33.94
50977;BME280;36992;48.200;12.418;2023-03-22T12:27:09;96331.06;;;20.17;35.47
50977;BME280;36992;48.200;12.418;2023-03-22T12:29:42;96326.47;;;20.21;34.89
50977;BME280;36992;48.200;12.418;2023-03-22T12:32:16;96319.44;;;20.24;34.32
50977;BME280;36992;48.200;12.418;2023-03-22T12:34:45;96313.63;;;20.25;34.55
50977;BME280;36992;48.200;12.418;2023-03-22T12:37:17;96316.03;;;20.30;34.74
50977;BME280;36992;48.200;12.418;2023-03-22T12:39:47;96308.25;;;20.32;34.24
50977;BME280;36992;48.200;12.418;2023-03-22T12:42:20;96305.22;;;20.38;34.73
50977;BME280;36992;48.200;12.418;2023-03-22T12:44:51;96301.38;;;20.42;34.07
50977;BME280;36992;48.200;12.418;2023-03-22T12:47:27;96304.25;;;20.49;34.07
50977;BME280;36992;48.200;12.418;2023-03-22T12:49:59;96304.66;;;20.52;33.35
50977;BME280;36992;48.200;12.418;2023-03-22T12:52:32;96296.09;;;20.53;32.84
50977;BME280;36992;48.200;12.418;2023-03-22T12:55:03;96303.53;;;20.56;32.81
50977;BME280;36992;48.200;12.418;2023-03-22T12:57:30;96291.44;;;20.57;32.82
50977;BME280;36992;48.200;12.418;2023-03-22T13:00:03;96281.75;;;20.63;33.95
50977;BME280;36992;48.200;12.418;2023-03-22T13:02:34;96279.03;;;20.63;33.51
50977;BME280;36992;48.200;12.418;2023-03-22T13:05:02;96278.28;;;20.67;33.35